Strona główna
METAR-TAF:

METAR-TAF

Lotnisko :

Port lotniczy Mendoza

Mendoza, Argentyna

Szerokość geograficzna: 32-50S, Długość geograficzna: 068-47W, wysokość: 705 m

Aktualna obserwacja pogody

Raport powstał 1 godzina i 11 minut temu, godzina 07:00 UTC
Wiatr 3 kt od południowy zachód
Temperatura 12°C
Wilgotność 50%
Ciśnienie 1015 hPa
Widzialność 10 km lub więcej
Brak chmur poniżej 1500 m i brak chmur cumulonimbus

METAR: SAME 280700Z 23003KT CAVOK 12/02 Q1015

czas: 05:11 (08:11 UTC)

Prognoza

Raport powstał 3 godziny i 11 minut temu, godzina 05:00 UTC
Prognoza ważna od 28 godzina 06 UTC do 29 godzina 06 UTC
Wiatr 5 kt od zachodnio-południowy zachód
Widzialność 10 km lub więcej
Brak chmur poniżej 1500 m i brak chmur cumulonimbus

TAF: SAME 280500Z 2806/2906 25005KT CAVOK TX21/2820Z TN05/2811Z

Obserwacja i prognoza pogody dla ponad 4000 lotnisk (raport METAR i TAF).

Dostępne stacje oznaczono żółtymi i czerwonymi punktami na mapie.

Najedź kursorem aby zobaczyć nazwę stacji.

Kliknij aby zobaczyć obserwacje i prognozy pogody.

Aby zmienić mapę: kliknij na zielony przycisk z czarnym krzyżykiem, aby powiększyć; na zielony przycisk z myślnikiem, aby pomniejszyć; na zielone strzałki, aby przejść do map sąsiednich.


METAR-TAF: